createdAt,value
2018-12-12T00:01:24.623Z,3.27
2018-12-12T00:03:53.242Z,3.10
2018-12-12T00:06:21.823Z,3.00
2018-12-12T00:08:50.488Z,3.30
2018-12-12T00:11:19.210Z,3.40
2018-12-12T00:13:47.837Z,3.27
2018-12-12T00:16:17.611Z,3.60
2018-12-12T00:18:46.174Z,2.47
2018-12-12T00:21:14.977Z,3.20
2018-12-12T00:23:43.599Z,3.10
2018-12-12T00:26:12.165Z,2.83
2018-12-12T00:28:40.755Z,2.80
2018-12-12T00:31:09.394Z,2.70
2018-12-12T00:33:37.932Z,2.87
2018-12-12T00:36:06.467Z,3.30
2018-12-12T00:38:35.203Z,2.70
2018-12-12T00:41:03.883Z,2.37
2018-12-12T00:43:32.456Z,2.30
2018-12-12T00:46:00.968Z,2.97
2018-12-12T00:48:29.535Z,2.73
2018-12-12T00:50:58.101Z,2.50
2018-12-12T00:53:26.742Z,2.70
2018-12-12T00:55:55.390Z,2.57
2018-12-12T00:58:24.402Z,2.60
2018-12-12T01:00:52.973Z,2.50
2018-12-12T01:03:21.552Z,2.53
2018-12-12T01:05:50.155Z,2.67
2018-12-12T01:08:18.823Z,2.50
2018-12-12T01:10:50.245Z,2.43
2018-12-12T01:13:18.836Z,2.30
2018-12-12T01:15:47.445Z,2.17
2018-12-12T01:18:16.158Z,2.77
2018-12-12T01:20:44.670Z,2.40
2018-12-12T01:23:13.253Z,2.67
2018-12-12T01:25:41.889Z,2.47
2018-12-12T01:28:10.447Z,2.60
2018-12-12T01:30:39.166Z,2.80
2018-12-12T01:33:07.873Z,2.80
2018-12-12T01:35:36.465Z,2.50
2018-12-12T01:38:05.250Z,2.47
2018-12-12T01:40:33.882Z,2.70
2018-12-12T01:43:02.488Z,3.10
2018-12-12T01:45:31.095Z,2.83
2018-12-12T01:47:59.680Z,2.70
2018-12-12T01:50:28.286Z,2.97
2018-12-12T01:52:56.821Z,2.73
2018-12-12T01:55:25.374Z,2.50
2018-12-12T01:57:53.979Z,3.07
2018-12-12T02:00:23.138Z,3.00
2018-12-12T02:02:51.713Z,2.53
2018-12-12T02:05:20.302Z,2.90
2018-12-12T02:07:48.991Z,2.67
2018-12-12T02:10:17.861Z,2.97
2018-12-12T02:12:56.344Z,2.50
2018-12-12T02:15:24.947Z,2.60
2018-12-12T02:17:53.876Z,3.13
2018-12-12T02:20:22.441Z,3.60
2018-12-12T02:22:51.036Z,3.20
2018-12-12T02:25:19.633Z,3.90
2018-12-12T02:27:48.218Z,3.90
2018-12-12T02:30:16.833Z,4.23
2018-12-12T02:32:45.476Z,3.70
2018-12-12T02:35:14.063Z,4.30
2018-12-12T02:37:42.762Z,3.87
2018-12-12T02:40:11.426Z,4.20
2018-12-12T02:42:40.039Z,4.17
2018-12-12T02:45:08.849Z,4.33
2018-12-12T02:47:37.409Z,3.30
2018-12-12T02:50:06.095Z,4.30
2018-12-12T02:52:34.748Z,3.70
2018-12-12T02:55:03.436Z,3.80
2018-12-12T02:57:32.038Z,3.43
2018-12-12T03:00:00.592Z,3.40
2018-12-12T03:02:29.523Z,4.70
2018-12-12T03:04:58.178Z,3.50
2018-12-12T03:08:29.824Z,3.60
2018-12-12T03:10:58.374Z,3.10
2018-12-12T03:13:26.953Z,3.90
2018-12-12T03:15:55.544Z,3.30
2018-12-12T03:18:24.145Z,3.60
2018-12-12T03:20:52.733Z,3.73
2018-12-12T03:23:21.352Z,3.30
2018-12-12T03:25:49.925Z,4.17
2018-12-12T03:28:18.508Z,4.10
2018-12-12T03:30:47.104Z,4.03
2018-12-12T03:33:15.657Z,3.60
2018-12-12T03:35:44.329Z,4.20
2018-12-12T03:38:12.930Z,3.50
2018-12-12T03:40:41.866Z,2.87
2018-12-12T03:43:10.596Z,3.20
2018-12-12T03:45:39.248Z,2.70
2018-12-12T03:48:07.873Z,2.40
2018-12-12T03:50:36.445Z,2.70
2018-12-12T03:53:05.074Z,2.80
2018-12-12T03:55:33.680Z,2.67
2018-12-12T03:58:02.328Z,2.80
2018-12-12T04:00:30.964Z,2.77
2018-12-12T04:03:00.358Z,2.77
2018-12-12T04:05:28.978Z,2.67
2018-12-12T04:07:57.595Z,2.93
2018-12-12T04:10:26.198Z,2.60
2018-12-12T04:12:54.837Z,2.77
2018-12-12T04:15:23.425Z,2.30
2018-12-12T04:17:52.029Z,2.60
2018-12-12T04:23:04.849Z,2.93
2018-12-12T04:25:33.820Z,2.50
2018-12-12T04:28:02.465Z,2.90
2018-12-12T04:30:31.157Z,2.93
2018-12-12T04:32:59.786Z,2.97
2018-12-12T04:35:28.438Z,2.97
2018-12-12T04:37:57.744Z,3.13
2018-12-12T04:40:26.354Z,3.00
2018-12-12T04:42:54.981Z,2.97
2018-12-12T04:45:23.627Z,2.27
2018-12-12T04:47:52.257Z,3.13
2018-12-12T04:50:21.109Z,3.60
2018-12-12T04:52:50.881Z,4.20
2018-12-12T04:55:19.541Z,3.20
2018-12-12T04:57:48.149Z,2.83
2018-12-12T05:00:17.098Z,3.80
2018-12-12T05:02:46.220Z,3.40
2018-12-12T05:05:14.862Z,3.30
2018-12-12T05:07:44.206Z,3.63
2018-12-12T05:10:12.892Z,3.20
2018-12-12T05:12:41.483Z,3.73
2018-12-12T05:15:10.130Z,3.90
2018-12-12T05:17:38.810Z,5.90
2018-12-12T05:20:07.673Z,4.00
2018-12-12T05:22:36.234Z,3.67
2018-12-12T05:25:04.983Z,3.27
2018-12-12T05:27:33.736Z,3.20
2018-12-12T05:30:02.324Z,3.20
2018-12-12T05:32:30.923Z,4.37
2018-12-12T05:34:59.479Z,3.90
2018-12-12T05:37:28.019Z,3.30
2018-12-12T05:39:56.651Z,3.60
2018-12-12T05:42:25.514Z,3.40
2018-12-12T05:44:54.329Z,3.50
2018-12-12T05:47:23.127Z,3.60
2018-12-12T05:49:51.694Z,3.97
2018-12-12T05:52:20.439Z,3.43
2018-12-12T05:54:49.121Z,3.80
2018-12-12T05:57:17.756Z,4.20
2018-12-12T05:59:46.457Z,3.27
2018-12-12T06:02:15.036Z,3.30
2018-12-12T06:04:43.626Z,3.80
2018-12-12T06:07:12.236Z,3.97
2018-12-12T06:09:40.808Z,3.80
2018-12-12T06:12:09.526Z,3.70
2018-12-12T06:14:38.163Z,4.23
2018-12-12T06:17:06.829Z,3.97
2018-12-12T06:19:35.403Z,4.17
2018-12-12T06:22:04.050Z,3.40
2018-12-12T06:24:32.709Z,3.47
2018-12-12T06:27:01.288Z,3.37
2018-12-12T06:29:29.921Z,3.70
2018-12-12T06:31:58.542Z,4.00
2018-12-12T06:34:27.129Z,3.37
2018-12-12T06:36:55.715Z,3.87
2018-12-12T06:39:24.285Z,3.97
2018-12-12T06:41:52.904Z,3.50
2018-12-12T06:44:21.481Z,3.80
2018-12-12T06:46:50.127Z,3.63
2018-12-12T06:49:18.742Z,4.07
2018-12-12T06:51:47.329Z,4.37
2018-12-12T06:54:15.889Z,5.20
2018-12-12T06:56:44.529Z,4.83
2018-12-12T06:59:13.226Z,4.80
2018-12-12T07:01:42.338Z,4.50
2018-12-12T07:04:11.034Z,4.47
2018-12-12T07:06:39.646Z,3.90
2018-12-12T07:09:09.769Z,4.37
2018-12-12T07:11:38.402Z,4.30
2018-12-12T07:14:07.010Z,4.07
2018-12-12T07:16:35.713Z,4.00
2018-12-12T07:19:04.438Z,3.37
2018-12-12T07:21:33.109Z,3.23
2018-12-12T07:24:01.875Z,3.57
2018-12-12T07:26:30.521Z,2.90
2018-12-12T07:28:59.699Z,3.57
2018-12-12T07:31:28.383Z,3.93
2018-12-12T07:34:00.869Z,3.13
2018-12-12T07:36:28.859Z,3.13
2018-12-12T07:38:57.854Z,3.83
2018-12-12T07:41:26.846Z,2.63
2018-12-12T07:43:55.505Z,3.30
2018-12-12T07:46:24.592Z,3.07
2018-12-12T07:48:53.142Z,3.17
2018-12-12T07:51:21.778Z,2.70
2018-12-12T07:53:50.408Z,2.80
2018-12-12T07:56:19.168Z,2.77
2018-12-12T07:58:47.949Z,3.43
2018-12-12T08:01:16.562Z,3.60
2018-12-12T08:03:45.190Z,3.80
2018-12-12T08:06:13.766Z,4.83
2018-12-12T08:08:42.382Z,4.57
2018-12-12T08:11:11.797Z,3.50
2018-12-12T08:13:40.490Z,2.90
2018-12-12T08:16:09.354Z,4.33
2018-12-12T08:18:38.121Z,3.00
2018-12-12T08:21:06.753Z,4.93
2018-12-12T08:23:35.684Z,4.47
2018-12-12T08:26:04.242Z,3.80
2018-12-12T08:28:32.915Z,3.50
2018-12-12T08:31:01.584Z,2.40
2018-12-12T08:33:30.302Z,2.00
2018-12-12T08:35:58.835Z,2.30
2018-12-12T08:38:27.803Z,2.80
2018-12-12T08:40:56.391Z,2.60
2018-12-12T08:43:24.966Z,2.80
2018-12-12T08:45:53.614Z,3.77
2018-12-12T08:48:22.221Z,3.83
2018-12-12T08:50:50.774Z,3.47
2018-12-12T08:53:19.473Z,3.57
2018-12-12T08:55:48.039Z,3.63
2018-12-12T08:58:16.666Z,3.30
2018-12-12T09:00:45.343Z,5.47
2018-12-12T09:03:17.595Z,2.97
2018-12-12T09:05:44.809Z,2.57
2018-12-12T09:08:13.437Z,3.40
2018-12-12T09:10:42.008Z,2.73
2018-12-12T09:13:10.642Z,2.30
2018-12-12T09:15:39.530Z,2.07
2018-12-12T09:18:08.099Z,2.20
2018-12-12T09:20:36.735Z,2.00
2018-12-12T09:23:05.332Z,2.60
2018-12-12T09:25:33.909Z,2.30
2018-12-12T09:28:02.597Z,2.90
2018-12-12T09:30:31.246Z,2.20
2018-12-12T09:32:59.858Z,3.20
2018-12-12T09:35:28.471Z,2.67
2018-12-12T09:37:57.120Z,2.43
2018-12-12T09:40:25.778Z,3.03
2018-12-12T09:42:54.384Z,2.13
2018-12-12T09:45:22.971Z,1.90
2018-12-12T09:47:51.638Z,2.23
2018-12-12T09:50:20.507Z,2.33
2018-12-12T09:52:49.215Z,1.47
2018-12-12T09:55:17.894Z,1.30
2018-12-12T09:57:47.661Z,1.53
2018-12-12T10:00:16.296Z,2.10
2018-12-12T10:02:44.862Z,1.80
2018-12-12T10:05:13.523Z,1.53
2018-12-12T10:07:42.128Z,1.77
2018-12-12T10:10:10.739Z,2.67
2018-12-12T10:12:39.633Z,1.60
2018-12-12T10:15:08.708Z,2.50
2018-12-12T10:17:37.334Z,2.20
2018-12-12T10:20:06.381Z,2.60
2018-12-12T10:22:35.010Z,2.10
2018-12-12T10:25:03.681Z,2.50
2018-12-12T10:27:32.211Z,2.17
2018-12-12T10:30:00.727Z,2.13
2018-12-12T10:32:30.105Z,1.77
2018-12-12T10:34:58.751Z,2.30
2018-12-12T10:37:27.362Z,2.43
2018-12-12T10:39:55.994Z,3.10
2018-12-12T10:42:24.612Z,3.50
2018-12-12T10:44:53.667Z,3.20
2018-12-12T10:47:22.236Z,3.37
2018-12-12T10:49:51.118Z,3.63
2018-12-12T10:52:20.170Z,3.27
2018-12-12T10:54:48.734Z,2.30
2018-12-12T10:57:17.418Z,2.83
2018-12-12T10:59:46.072Z,2.90
2018-12-12T11:02:20.244Z,3.13
2018-12-12T11:04:48.920Z,2.83
2018-12-12T11:07:17.614Z,3.00
2018-12-12T11:09:46.750Z,2.90
2018-12-12T11:12:15.415Z,2.80
2018-12-12T11:14:45.054Z,2.30
2018-12-12T11:17:13.688Z,2.87
2018-12-12T11:19:42.301Z,2.80
2018-12-12T11:22:10.990Z,2.40
2018-12-12T11:24:39.990Z,2.40
2018-12-12T11:27:08.675Z,2.30
2018-12-12T11:29:37.995Z,2.60
2018-12-12T11:32:07.291Z,2.10
2018-12-12T11:34:35.977Z,2.53
2018-12-12T11:37:04.640Z,2.80
2018-12-12T11:39:33.223Z,2.70
2018-12-12T11:42:02.002Z,3.10
2018-12-12T11:44:30.545Z,2.80
2018-12-12T11:46:59.237Z,2.10
2018-12-12T11:49:28.801Z,2.10
2018-12-12T11:51:57.624Z,2.40
2018-12-12T11:54:26.617Z,3.03
2018-12-12T11:56:55.285Z,2.97
2018-12-12T11:59:24.461Z,2.40
2018-12-12T12:01:53.057Z,2.27
2018-12-12T12:04:21.829Z,3.23
2018-12-12T12:06:50.655Z,2.77
2018-12-12T12:09:19.636Z,2.97
2018-12-12T12:11:48.539Z,3.10
2018-12-12T12:14:17.485Z,2.80
2018-12-12T12:16:46.159Z,2.83
2018-12-12T12:19:14.947Z,3.37
2018-12-12T12:21:43.459Z,3.10
2018-12-12T12:24:12.046Z,2.90
2018-12-12T12:26:40.720Z,2.43
2018-12-12T12:29:09.367Z,3.00
2018-12-12T12:31:38.346Z,3.00
2018-12-12T12:34:06.960Z,2.80
2018-12-12T12:36:35.772Z,3.17
2018-12-12T12:39:07.437Z,3.47
2018-12-12T12:41:36.348Z,2.83
2018-12-12T12:44:04.988Z,2.60
2018-12-12T12:46:33.573Z,2.93
2018-12-12T12:49:02.111Z,2.10
2018-12-12T12:51:30.873Z,2.43
2018-12-12T12:53:59.497Z,2.70
2018-12-12T12:56:28.100Z,3.50
2018-12-12T12:58:56.779Z,3.87
2018-12-12T13:01:25.338Z,4.20
2018-12-12T13:03:54.037Z,3.47
2018-12-12T13:06:22.709Z,3.30
2018-12-12T13:08:51.277Z,3.93
2018-12-12T13:11:20.356Z,3.20
2018-12-12T13:13:48.924Z,3.43
2018-12-12T13:16:17.637Z,2.80
2018-12-12T13:18:46.566Z,2.90
2018-12-12T13:21:15.323Z,3.93
2018-12-12T13:23:44.320Z,4.27
2018-12-12T13:26:13.101Z,3.30
2018-12-12T13:28:42.177Z,5.10
2018-12-12T13:31:11.748Z,4.00
2018-12-12T13:33:40.643Z,4.40
2018-12-12T13:36:09.326Z,5.07
2018-12-12T13:38:38.003Z,5.07
2018-12-12T13:41:06.741Z,4.40
2018-12-12T13:43:35.333Z,4.80
2018-12-12T13:46:04.017Z,3.83
2018-12-12T13:48:32.561Z,4.40
2018-12-12T13:51:01.214Z,4.07
2018-12-12T13:53:29.761Z,4.33
2018-12-12T13:55:58.381Z,4.70
2018-12-12T13:58:26.971Z,4.70
2018-12-12T14:00:55.580Z,4.10
2018-12-12T14:03:24.221Z,5.23
2018-12-12T14:05:52.885Z,5.77
2018-12-12T14:08:21.517Z,4.00
2018-12-12T14:10:50.208Z,5.20
2018-12-12T14:13:19.187Z,6.67
2018-12-12T14:15:47.756Z,5.77
2018-12-12T14:18:16.405Z,8.00
2018-12-12T14:20:45.093Z,5.90
2018-12-12T14:23:13.773Z,6.23
2018-12-12T14:25:42.404Z,6.03
2018-12-12T14:28:11.067Z,7.20
2018-12-12T14:30:39.760Z,8.03
2018-12-12T14:33:08.319Z,7.80
2018-12-12T14:35:36.889Z,8.00
2018-12-12T14:38:05.507Z,6.70
2018-12-12T14:40:34.408Z,9.20
2018-12-12T14:43:02.961Z,5.37
2018-12-12T14:45:31.631Z,6.30
2018-12-12T14:48:00.259Z,6.87
2018-12-12T14:50:28.892Z,7.43
2018-12-12T14:52:57.574Z,7.63
2018-12-12T14:55:26.659Z,7.83
2018-12-12T14:57:55.236Z,6.90
2018-12-12T15:00:23.908Z,7.10
2018-12-12T15:02:52.575Z,9.10
2018-12-12T15:05:21.237Z,8.77
2018-12-12T15:07:50.287Z,8.23
2018-12-12T15:10:18.880Z,7.60
2018-12-12T15:12:47.623Z,9.17
2018-12-12T15:15:16.245Z,9.43
2018-12-12T15:17:44.875Z,7.77
2018-12-12T15:20:13.677Z,9.40
2018-12-12T15:22:42.306Z,8.70
2018-12-12T15:25:11.179Z,10.03
2018-12-12T15:27:39.778Z,10.33
2018-12-12T15:30:10.694Z,8.90
2018-12-12T15:32:39.307Z,8.70
2018-12-12T15:35:07.970Z,7.87
2018-12-12T15:37:36.691Z,6.20
2018-12-12T15:40:05.855Z,5.43
2018-12-12T15:42:34.588Z,5.20
2018-12-12T15:45:03.334Z,5.23
2018-12-12T15:47:32.075Z,5.57
2018-12-12T15:50:00.755Z,5.63
2018-12-12T15:52:29.424Z,4.90
2018-12-12T15:54:58.190Z,4.67
2018-12-12T15:57:26.802Z,5.00
2018-12-12T15:59:55.312Z,5.27
2018-12-12T16:02:23.998Z,5.50
2018-12-12T16:04:52.613Z,7.30
2018-12-12T16:07:21.336Z,7.63
2018-12-12T16:09:50.012Z,9.30
2018-12-12T16:12:18.615Z,7.60
2018-12-12T16:14:47.422Z,7.80
2018-12-12T16:17:16.183Z,6.20
2018-12-12T16:19:44.765Z,5.17
2018-12-12T16:22:13.434Z,6.00
2018-12-12T16:24:41.940Z,5.07
2018-12-12T16:27:10.537Z,5.23
2018-12-12T16:29:39.598Z,5.40
2018-12-12T16:32:08.296Z,5.57
2018-12-12T16:34:36.963Z,5.53
2018-12-12T16:37:05.866Z,5.60
2018-12-12T16:39:34.515Z,4.80
2018-12-12T16:42:03.290Z,4.47
2018-12-12T16:44:32.165Z,4.30
2018-12-12T16:47:01.217Z,4.27
2018-12-12T16:49:29.872Z,5.20
2018-12-12T16:51:58.490Z,4.63
2018-12-12T16:54:27.114Z,4.90
2018-12-12T16:56:55.754Z,5.57
2018-12-12T16:59:24.504Z,5.30
2018-12-12T17:01:53.172Z,5.93
2018-12-12T17:04:21.937Z,6.67
2018-12-12T17:06:51.378Z,6.20
2018-12-12T17:09:19.999Z,6.40
2018-12-12T17:11:48.630Z,6.67
2018-12-12T17:14:17.379Z,5.87
2018-12-12T17:16:47.416Z,6.03
2018-12-12T17:19:16.068Z,5.50
2018-12-12T17:21:45.229Z,6.20
2018-12-12T17:24:13.992Z,6.00
2018-12-12T17:26:42.787Z,5.90
2018-12-12T17:29:11.466Z,5.80
2018-12-12T17:31:40.092Z,5.70
2018-12-12T17:34:08.729Z,6.43
2018-12-12T17:36:37.255Z,5.73
2018-12-12T17:39:07.489Z,6.23
2018-12-12T17:41:36.122Z,6.33
2018-12-12T17:44:04.851Z,6.57
2018-12-12T17:46:33.445Z,6.33
2018-12-12T17:49:02.343Z,6.30
2018-12-12T17:51:30.901Z,7.77
2018-12-12T17:53:59.573Z,6.83
2018-12-12T17:56:28.160Z,6.40
2018-12-12T17:58:56.786Z,6.83
2018-12-12T18:08:11.188Z,7.67
2018-12-12T18:10:39.865Z,7.77
2018-12-12T18:13:08.551Z,7.07
2018-12-12T18:15:37.430Z,7.53
2018-12-12T18:18:06.053Z,7.53
2018-12-12T18:20:34.701Z,8.90
2018-12-12T18:23:03.276Z,9.17
2018-12-12T18:25:32.023Z,9.00
2018-12-12T18:28:00.656Z,9.40
2018-12-12T18:30:29.263Z,9.30
2018-12-12T18:32:57.977Z,14.00
2018-12-12T18:35:27.583Z,12.67
2018-12-12T18:37:56.377Z,10.33
2018-12-12T18:40:25.039Z,8.50
2018-12-12T18:42:53.697Z,7.90
2018-12-12T18:45:22.419Z,7.70
2018-12-12T18:47:51.068Z,9.03
2018-12-12T18:50:19.771Z,9.50
2018-12-12T18:52:48.379Z,9.73
2018-12-12T18:55:17.014Z,9.57
2018-12-12T18:57:45.717Z,9.07
2018-12-12T19:00:14.670Z,9.60
2018-12-12T19:02:43.246Z,8.50
2018-12-12T19:05:11.964Z,9.13
2018-12-12T19:07:40.619Z,18.43
2018-12-12T19:10:09.501Z,10.23
2018-12-12T19:12:38.203Z,10.43
2018-12-12T19:15:08.313Z,8.97
2018-12-12T19:17:37.138Z,9.97
2018-12-12T19:20:07.003Z,11.10
2018-12-12T19:22:35.704Z,9.50
2018-12-12T19:25:04.997Z,9.20
2018-12-12T19:27:34.892Z,8.67
2018-12-12T19:32:39.178Z,8.67
2018-12-12T19:35:09.255Z,9.13
2018-12-12T19:37:37.919Z,9.50
2018-12-12T19:40:08.010Z,9.63
2018-12-12T19:45:15.987Z,8.57
2018-12-12T19:47:44.604Z,8.37
2018-12-12T19:50:13.245Z,9.33
2018-12-12T19:52:41.978Z,9.33
2018-12-12T19:55:10.847Z,8.50
2018-12-12T19:57:39.549Z,8.60
2018-12-12T20:00:14.587Z,9.07
2018-12-12T20:02:43.272Z,8.90
2018-12-12T20:05:12.102Z,9.17
2018-12-12T20:07:40.976Z,8.87
2018-12-12T20:10:09.643Z,9.70
2018-12-12T20:12:38.605Z,9.17
2018-12-12T20:15:10.137Z,9.60
2018-12-12T20:17:38.840Z,10.53
2018-12-12T20:20:11.062Z,9.93
2018-12-12T20:22:39.756Z,10.00
2018-12-12T20:25:08.456Z,10.43
2018-12-12T20:27:37.218Z,13.20
2018-12-12T20:30:13.030Z,12.17
2018-12-12T20:32:41.719Z,13.67
2018-12-12T20:35:10.341Z,10.90
2018-12-12T20:37:38.969Z,11.17
2018-12-12T20:40:07.849Z,11.90
2018-12-12T20:42:36.754Z,11.87
2018-12-12T20:45:05.995Z,12.43
2018-12-12T20:47:34.697Z,13.60
2018-12-12T20:50:03.481Z,13.63
2018-12-12T20:52:32.854Z,13.77
2018-12-12T20:55:01.569Z,14.70
2018-12-12T20:57:30.296Z,15.83
2018-12-12T20:59:58.938Z,34.30
2018-12-12T21:02:28.655Z,16.77
2018-12-12T21:04:57.279Z,12.40
2018-12-12T21:07:25.977Z,13.13
2018-12-12T21:09:54.678Z,13.70
2018-12-12T21:12:24.635Z,13.40
2018-12-12T21:14:53.279Z,15.43
2018-12-12T21:17:22.564Z,14.20
2018-12-12T21:19:51.250Z,12.73
2018-12-12T21:22:20.968Z,12.97
2018-12-12T21:24:50.244Z,13.27
2018-12-12T21:27:18.859Z,13.77
2018-12-12T21:29:47.499Z,14.20
2018-12-12T21:32:16.099Z,13.43
2018-12-12T21:34:44.690Z,13.90
2018-12-12T21:37:13.347Z,16.23
2018-12-12T21:39:41.982Z,14.67
2018-12-12T21:42:11.583Z,15.57
2018-12-12T21:44:40.172Z,15.43
2018-12-12T21:47:08.865Z,14.67
2018-12-12T21:49:38.235Z,18.90
2018-12-12T21:52:06.838Z,16.97
2018-12-12T21:54:35.705Z,15.27
2018-12-12T21:57:04.275Z,17.07
2018-12-12T21:59:32.852Z,16.30
2018-12-12T22:02:01.503Z,18.00
2018-12-12T22:04:30.073Z,14.97
2018-12-12T22:06:58.722Z,16.00
2018-12-12T22:09:27.313Z,16.10
2018-12-12T22:11:56.246Z,17.67
2018-12-12T22:14:24.805Z,15.87
2018-12-12T22:16:53.455Z,16.57
2018-12-12T22:19:22.154Z,17.20
2018-12-12T22:21:50.684Z,18.70
2018-12-12T22:24:19.659Z,20.60
2018-12-12T22:26:48.315Z,18.00
2018-12-12T22:29:16.889Z,15.73
2018-12-12T22:31:45.670Z,17.60
2018-12-12T22:34:14.411Z,17.23
2018-12-12T22:36:43.155Z,17.03
2018-12-12T22:39:11.785Z,14.50
2018-12-12T22:41:40.403Z,14.97
2018-12-12T22:44:09.107Z,15.17
2018-12-12T22:46:37.958Z,19.87
2018-12-12T22:49:06.610Z,14.70
2018-12-12T22:51:35.257Z,13.90
2018-12-12T22:54:04.595Z,14.90
2018-12-12T22:56:33.167Z,13.23
2018-12-12T22:59:01.798Z,13.57
2018-12-12T23:01:30.423Z,13.67
2018-12-12T23:03:59.061Z,12.60
2018-12-12T23:06:27.648Z,12.70
2018-12-12T23:08:56.306Z,13.10
2018-12-12T23:11:25.474Z,11.80
2018-12-12T23:13:54.140Z,11.80
2018-12-12T23:16:23.092Z,12.50
2018-12-12T23:18:51.690Z,12.20
2018-12-12T23:21:20.257Z,12.43
2018-12-12T23:23:48.778Z,12.00
2018-12-12T23:26:17.419Z,11.67
2018-12-12T23:28:45.995Z,10.80
2018-12-12T23:31:14.665Z,11.33
2018-12-12T23:33:45.234Z,11.40
2018-12-12T23:36:13.848Z,10.90
2018-12-12T23:38:42.476Z,11.20
2018-12-12T23:41:11.132Z,10.53
2018-12-12T23:43:39.711Z,10.90
2018-12-12T23:46:08.435Z,10.73
2018-12-12T23:48:37.044Z,11.07
2018-12-12T23:51:05.640Z,11.53
2018-12-12T23:53:34.165Z,10.93
2018-12-12T23:56:02.793Z,11.07
2018-12-12T23:58:31.423Z,11.00
